Time;durP1;ratioP1;P1;durP2;ratioP2;P2;SDS_P1;SDS_P2;PMS_P1;PMS_P2;Temp;Humidity;BMP_temperature;BMP_pressure;BME280_temperature;BME280_humidity;BME280_pressure;Samples;Min_cycle;Max_cycle;Signal;HPM_P1;HPM_P2
2022/01/05 00:02:24;;;;;;;18.02;6.70;;;;;;;4.91;100.00;92596.16;5073077;28;20045;-82
2022/01/05 00:04:51;;;;;;;12.20;6.97;;;;;;;4.91;100.00;92596.16;5073302;28;20056;-82
2022/01/05 00:07:18;;;;;;;16.73;8.80;;;;;;;4.91;100.00;92591.81;5073030;28;20063;-82
2022/01/05 00:09:45;;;;;;;28.52;12.30;;;;;;;4.95;100.00;92590.47;5073357;28;20057;-82
2022/01/05 00:12:12;;;;;;;26.90;14.07;;;;;;;4.93;100.00;92573.81;5073342;28;20045;-82
2022/01/05 00:14:39;;;;;;;25.45;11.20;;;;;;;4.94;100.00;92588.13;5073133;28;20510;-82
2022/01/05 00:17:06;;;;;;;31.60;13.00;;;;;;;4.80;100.00;92590.63;5073200;28;20053;-82
2022/01/05 00:19:34;;;;;;;18.67;9.48;;;;;;;4.78;100.00;92576.50;5072910;28;20048;-83
2022/01/05 00:22:01;;;;;;;24.33;9.40;;;;;;;4.80;100.00;92590.63;5072994;28;20041;-83
2022/01/05 00:24:28;;;;;;;17.30;8.95;;;;;;;4.74;100.00;92577.84;5072885;28;20052;-82
2022/01/05 00:26:55;;;;;;;19.13;9.60;;;;;;;4.66;100.00;92573.72;5072836;28;20044;-82
2022/01/05 00:29:22;;;;;;;20.88;9.88;;;;;;;4.71;100.00;92580.78;5072885;28;20052;-82
2022/01/05 00:31:48;;;;;;;23.42;9.35;;;;;;;4.62;100.00;92567.41;5072765;28;20057;-82
2022/01/05 00:34:15;;;;;;;21.58;10.00;;;;;;;4.73;100.00;92584.72;5072658;28;20052;-82
2022/01/05 00:36:43;;;;;;;19.67;9.07;;;;;;;4.71;100.00;92594.28;5072937;28;20044;-82
2022/01/05 00:39:10;;;;;;;16.33;8.35;;;;;;;4.74;100.00;92593.13;5048820;28;20051;-82
2022/01/05 00:41:37;;;;;;;18.88;9.10;;;;;;;4.74;100.00;92588.03;5072546;28;20499;-82
2022/01/05 00:44:04;;;;;;;19.13;9.25;;;;;;;4.48;100.00;92544.47;5072584;28;20054;-82
2022/01/05 00:46:31;;;;;;;19.90;10.10;;;;;;;4.71;100.00;92586.66;5072408;28;20060;-83
2022/01/05 00:48:58;;;;;;;20.50;9.43;;;;;;;4.66;100.00;92582.13;5072303;28;20057;-83
2022/01/05 00:51:25;;;;;;;19.42;8.95;;;;;;;4.69;100.00;92586.06;5072480;28;20051;-83
2022/01/05 00:53:53;;;;;;;21.08;10.05;;;;;;;4.61;100.00;92581.91;5072416;28;20052;-83
2022/01/05 00:56:20;;;;;;;24.73;8.80;;;;;;;4.62;100.00;92575.06;5072242;28;20052;-82
2022/01/05 00:58:46;;;;;;;18.13;8.00;;;;;;;4.63;100.00;92571.56;5072349;28;20041;-83
2022/01/05 01:01:13;;;;;;;18.83;8.95;;;;;;;4.66;100.00;92577.06;5072499;28;20106;-83
2022/01/05 01:03:40;;;;;;;19.20;9.90;;;;;;;4.67;100.00;92577.81;5072056;28;20055;-82
2022/01/05 01:06:07;;;;;;;27.13;14.57;;;;;;;4.67;100.00;92576.06;5072177;28;20087;-83
2022/01/05 01:08:34;;;;;;;27.40;18.70;;;;;;;4.60;100.00;92574.47;5071927;28;20522;-82
2022/01/05 01:11:02;;;;;;;26.83;14.07;;;;;;;4.62;100.00;92577.59;5072077;28;20048;-83
2022/01/05 01:13:29;;;;;;;24.05;11.70;;;;;;;4.65;100.00;92579.78;5072038;28;20441;-83
2022/01/05 01:15:56;;;;;;;19.17;10.15;;;;;;;4.32;100.00;92543.03;5071184;28;20920;-82
2022/01/05 01:18:23;;;;;;;20.30;9.57;;;;;;;4.38;100.00;92567.72;5071684;28;20106;-82
2022/01/05 01:20:50;;;;;;;20.92;9.57;;;;;;;4.42;100.00;92580.84;5071726;28;20044;-82
2022/01/05 01:23:20;;;;;;;17.73;10.07;;;;;;;4.38;100.00;92574.53;5071873;28;20111;-82
2022/01/05 01:25:48;;;;;;;17.05;9.48;;;;;;;4.21;100.00;92553.75;5071653;28;20453;-82
2022/01/05 01:28:16;;;;;;;19.70;10.80;;;;;;;4.26;100.00;92571.75;5071460;28;20051;-82
2022/01/05 01:30:43;;;;;;;28.42;11.82;;;;;;;4.35;100.00;92570.63;5071129;28;20463;-83
2022/01/05 01:33:10;;;;;;;28.13;12.15;;;;;;;4.30;100.00;92567.09;5071747;28;20045;-82
2022/01/05 01:35:37;;;;;;;30.45;12.68;;;;;;;4.13;100.00;92560.50;5071448;28;20052;-82
2022/01/05 01:38:04;;;;;;;23.52;11.57;;;;;;;3.95;100.00;92544.97;5071541;28;20083;-82
2022/01/05 01:40:31;;;;;;;22.08;11.68;;;;;;;4.06;100.00;92552.06;5071380;28;20090;-82
2022/01/05 01:42:58;;;;;;;28.40;12.25;;;;;;;4.07;100.00;92551.09;5071350;28;20064;-83
2022/01/05 01:45:27;;;;;;;43.33;19.73;;;;;;;3.94;100.00;92534.00;5071261;28;20059;-82
2022/01/05 01:47:54;;;;;;;99.90;49.38;;;;;;;4.10;100.00;92549.94;5071364;28;20083;-83
2022/01/05 01:50:21;;;;;;;49.05;26.08;;;;;;;4.10;100.00;92550.75;5070893;28;20045;-82
2022/01/05 01:52:48;;;;;;;24.63;11.23;;;;;;;4.13;100.00;92557.22;5071024;28;20589;-82
2022/01/05 01:55:15;;;;;;;19.77;9.00;;;;;;;4.07;100.00;92552.88;5070686;28;20045;-83
2022/01/05 01:57:43;;;;;;;22.83;10.43;;;;;;;4.13;100.00;92549.59;5071010;28;20509;-83
2022/01/05 02:00:12;;;;;;;25.17;12.60;;;;;;;3.61;100.00;92482.00;5070742;28;20118;-82
2022/01/05 02:02:40;;;;;;;29.25;13.23;;;;;;;4.09;100.00;92554.25;5071061;28;21119;-82
2022/01/05 02:05:08;;;;;;;25.98;14.23;;;;;;;4.01;100.00;92528.97;5071055;28;20063;-83
2022/01/05 02:07:35;;;;;;;26.02;12.95;;;;;;;4.05;100.00;92532.72;5071036;28;20493;-82
2022/01/05 02:10:02;;;;;;;20.20;9.95;;;;;;;4.08;100.00;92537.41;5070969;28;20055;-83
2022/01/05 02:12:29;;;;;;;24.65;14.05;;;;;;;4.10;100.00;92535.50;5071236;28;20052;-83
2022/01/05 02:14:57;;;;;;;22.63;8.85;;;;;;;4.01;100.00;92518.81;5071079;28;20098;-83
2022/01/05 02:17:31;;;;;;;21.88;10.48;;;;;;;4.09;100.00;92520.41;5070971;28;20052;-83
2022/01/05 02:19:59;;;;;;;20.73;11.23;;;;;;;4.06;100.00;92523.31;5070910;28;20127;-84
2022/01/05 02:22:27;;;;;;;16.67;9.75;;;;;;;4.04;100.00;92522.72;5070779;28;20556;-84
2022/01/05 02:24:54;;;;;;;14.75;9.52;;;;;;;4.05;100.00;92519.22;5070703;28;20071;-84
2022/01/05 02:27:21;;;;;;;17.75;9.13;;;;;;;4.07;100.00;92527.47;5070891;28;20091;-81
2022/01/05 02:29:48;;;;;;;17.65;9.15;;;;;;;4.07;100.00;92523.13;5070695;28;20044;-83
2022/01/05 02:32:14;;;;;;;16.65;9.05;;;;;;;4.01;100.00;92528.97;5070827;28;20048;-83
2022/01/05 02:34:41;;;;;;;16.58;9.70;;;;;;;3.99;100.00;92521.53;5070700;28;20094;-82
2022/01/05 02:37:08;;;;;;;19.55;10.02;;;;;;;4.01;100.00;92519.59;5070576;28;20045;-82
2022/01/05 02:39:36;;;;;;;16.65;8.85;;;;;;;3.99;100.00;92523.31;5070875;28;20435;-83
2022/01/05 02:42:04;;;;;;;15.00;6.97;;;;;;;3.89;100.00;92515.97;5070790;28;20044;-83
2022/01/05 02:44:30;;;;;;;13.05;6.18;;;;;;;3.55;100.00;92476.88;5070559;28;20388;-83
2022/01/05 02:46:57;;;;;;;26.00;13.05;;;;;;;3.43;100.00;92523.06;5070481;28;20045;-83
2022/01/05 02:49:24;;;;;;;17.13;9.98;;;;;;;3.32;100.00;92521.03;5070596;28;20059;-83
2022/01/05 02:51:51;;;;;;;23.25;12.32;;;;;;;3.23;100.00;92522.13;5070335;28;20499;-83
2022/01/05 02:54:18;;;;;;;19.13;10.38;;;;;;;3.19;100.00;92516.63;5070681;28;20049;-83
2022/01/05 02:56:46;;;;;;;23.08;12.52;;;;;;;3.19;100.00;92517.41;5070574;28;20499;-83
2022/01/05 02:59:14;;;;;;;18.00;10.75;;;;;;;3.23;100.00;92517.06;5070456;28;20560;-83
2022/01/05 03:01:41;;;;;;;20.35;10.80;;;;;;;3.17;100.00;92516.03;5058815;28;20083;-83
2022/01/05 03:04:07;;;;;;;17.50;10.40;;;;;;;3.20;100.00;92513.13;5070241;28;20388;-83
2022/01/05 03:06:34;;;;;;;19.42;11.10;;;;;;;3.23;100.00;92520.38;5070402;28;20063;-83
2022/01/05 03:09:01;;;;;;;28.40;12.68;;;;;;;3.11;100.00;92509.94;5070462;28;20068;-83
2022/01/05 03:11:28;;;;;;;42.05;17.10;;;;;;;2.63;100.00;92515.47;5070529;28;20040;-83
2022/01/05 03:13:56;;;;;;;51.08;18.17;;;;;;;2.43;100.00;92510.97;5070319;28;20060;-83
2022/01/05 03:16:23;;;;;;;33.58;16.38;;;;;;;2.59;100.00;92504.91;5070233;28;20052;-83
2022/01/05 03:18:49;;;;;;;28.67;15.20;;;;;;;2.66;100.00;92495.63;5070168;28;20045;-83
2022/01/05 03:21:16;;;;;;;31.95;16.85;;;;;;;2.52;100.00;92476.16;5070522;28;20102;-83
2022/01/05 03:23:46;;;;;;;31.90;17.00;;;;;;;2.78;100.00;92505.31;5070347;28;20056;-83
2022/01/05 03:26:13;;;;;;;47.00;26.15;;;;;;;2.89;100.00;92506.59;5070165;28;20059;-83
2022/01/05 03:28:40;;;;;;;41.20;18.10;;;;;;;2.61;100.00;92512.34;5070212;28;20143;-83
2022/01/05 03:31:08;;;;;;;45.75;18.58;;;;;;;2.57;100.00;92498.44;5070235;28;20098;-83
2022/01/05 03:33:35;;;;;;;44.63;18.05;;;;;;;2.63;100.00;92495.97;5069998;28;20048;-83
2022/01/05 03:36:03;;;;;;;34.83;19.00;;;;;;;2.61;100.00;92502.19;5070323;28;20442;-83
2022/01/05 03:38:30;;;;;;;34.70;17.25;;;;;;;2.60;100.00;92503.16;5071709;28;20049;-83
2022/01/05 03:40:58;;;;;;;35.40;17.27;;;;;;;2.41;100.00;92492.63;5074252;28;20048;-83
2022/01/05 03:43:25;;;;;;;43.03;17.85;;;;;;;2.51;100.00;92502.47;5073760;28;20415;-83
2022/01/05 03:45:52;;;;;;;37.85;17.67;;;;;;;2.29;100.00;92499.09;5073502;28;20402;-83
2022/01/05 03:48:20;;;;;;;39.17;19.20;;;;;;;2.11;100.00;92490.09;5073682;28;20135;-83
2022/01/05 03:50:48;;;;;;;44.10;19.30;;;;;;;1.97;100.00;92496.75;5073687;28;20098;-83
2022/01/05 03:53:15;;;;;;;41.03;19.80;;;;;;;1.78;100.00;92480.31;5071375;28;20044;-83
2022/01/05 03:55:43;;;;;;;35.30;18.15;;;;;;;1.69;100.00;92493.06;5073495;28;20433;-83
2022/01/05 03:58:10;;;;;;;33.75;18.30;;;;;;;1.63;100.00;92477.78;5073434;28;20503;-83
2022/01/05 04:00:41;;;;;;;31.38;16.05;;;;;;;1.70;100.00;92486.25;5073157;28;20040;-83
2022/01/05 04:03:08;;;;;;;28.48;16.30;;;;;;;1.90;100.00;92478.91;5073323;28;20487;-83
2022/01/05 04:05:36;;;;;;;30.27;14.80;;;;;;;1.99;100.00;92470.28;5073434;28;20122;-82
2022/01/05 04:08:04;;;;;;;22.50;13.15;;;;;;;2.07;100.00;92464.34;5073278;28;20106;-83
2022/01/05 04:10:32;;;;;;;26.05;10.73;;;;;;;2.21;100.00;92465.28;5073177;28;20387;-83
2022/01/05 04:12:59;;;;;;;19.33;10.82;;;;;;;2.29;100.00;92463.59;5073126;28;20040;-83
2022/01/05 04:15:25;;;;;;;22.48;10.45;;;;;;;2.39;100.00;92467.44;5073352;28;20048;-83
2022/01/05 04:17:52;;;;;;;20.73;12.48;;;;;;;2.50;100.00;92470.50;5073157;28;20048;-83
2022/01/05 04:20:20;;;;;;;19.45;10.40;;;;;;;2.44;100.00;92461.06;5072935;28;20407;-83
2022/01/05 04:22:48;;;;;;;16.55;9.63;;;;;;;2.53;100.00;92470.91;5072902;28;20056;-83
2022/01/05 04:25:16;;;;;;;20.67;11.15;;;;;;;2.60;100.00;92462.59;5072982;28;20102;-83
2022/01/05 04:27:43;;;;;;;19.30;10.52;;;;;;;2.75;100.00;92468.41;5072686;28;20494;-83
2022/01/05 04:30:11;;;;;;;21.42;9.63;;;;;;;2.79;100.00;92462.00;5072948;28;20044;-83
2022/01/05 04:32:38;;;;;;;22.15;11.07;;;;;;;2.84;100.00;92469.09;5072709;28;20056;-83
2022/01/05 04:35:06;;;;;;;18.35;9.63;;;;;;;2.89;100.00;92476.16;5072685;28;20457;-83
2022/01/05 04:37:33;;;;;;;26.30;13.93;;;;;;;2.31;100.00;92481.97;5072857;28;20045;-83
2022/01/05 04:40:02;;;;;;;33.03;16.77;;;;;;;1.41;100.00;92475.91;5072618;28;20430;-83
2022/01/05 04:42:29;;;;;;;41.85;20.15;;;;;;;1.00;100.00;92482.09;5072825;28;20063;-82
2022/01/05 04:44:56;;;;;;;39.83;24.40;;;;;;;0.92;100.00;92485.47;5072592;28;20041;-83
2022/01/05 04:47:23;;;;;;;38.97;20.90;;;;;;;1.07;100.00;92489.78;5069942;28;20069;-82
2022/01/05 04:49:50;;;;;;;68.55;33.47;;;;;;;1.19;100.00;92493.50;5071549;28;20075;-83
2022/01/05 04:52:16;;;;;;;45.15;25.70;;;;;;;1.22;100.00;92489.84;5072456;28;20483;-83
2022/01/05 04:54:43;;;;;;;42.47;22.58;;;;;;;1.43;100.00;92485.88;5072140;28;20047;-83
2022/01/05 04:57:12;;;;;;;69.55;32.25;;;;;;;1.64;100.00;92502.13;5072512;28;20048;-83
2022/01/05 04:59:38;;;;;;;42.80;23.15;;;;;;;1.60;100.00;92496.63;5072185;28;20052;-83
2022/01/05 05:02:05;;;;;;;40.63;20.75;;;;;;;1.58;100.00;92504.38;5072229;28;20106;-83
2022/01/05 05:04:32;;;;;;;45.15;21.95;;;;;;;1.53;100.00;92501.59;5072184;28;20055;-83
2022/01/05 05:06:59;;;;;;;62.47;40.30;;;;;;;1.49;100.00;92517.28;5072073;28;20052;-84
2022/01/05 05:09:26;;;;;;;76.75;42.75;;;;;;;0.73;100.00;92518.75;5071865;28;20063;-82
2022/01/05 05:11:53;;;;;;;107.35;53.65;;;;;;;0.52;100.00;92525.19;5071990;28;20044;-83
2022/01/05 05:14:21;;;;;;;184.75;85.95;;;;;;;0.34;100.00;92527.94;5072058;28;20049;-83
2022/01/05 05:16:48;;;;;;;97.75;49.10;;;;;;;0.37;100.00;92530.16;5072014;28;20453;-83
2022/01/05 05:19:15;;;;;;;84.45;42.42;;;;;;;0.53;100.00;92525.03;5072269;28;20040;-83
2022/01/05 05:21:42;;;;;;;68.78;35.55;;;;;;;0.55;100.00;92534.19;5071671;28;20052;-82
2022/01/05 05:24:10;;;;;;;92.22;49.33;;;;;;;0.56;100.00;92528.97;5071930;28;20055;-82
2022/01/05 05:26:37;;;;;;;63.22;34.72;;;;;;;0.53;100.00;92530.09;5071852;28;20040;-83
2022/01/05 05:29:03;;;;;;;91.90;49.13;;;;;;;0.51;100.00;92526.16;5071607;28;20060;-83
2022/01/05 05:31:32;;;;;;;122.97;67.20;;;;;;;0.45;100.00;92526.78;5071648;28;20063;-83
2022/01/05 05:33:59;;;;;;;117.07;66.20;;;;;;;0.32;100.00;92522.28;5071540;28;20049;-83
2022/01/05 05:36:25;;;;;;;88.78;54.83;;;;;;;0.27;100.00;92535.38;5070740;28;20052;-83
2022/01/05 05:38:52;;;;;;;76.80;44.50;;;;;;;0.27;100.00;92535.38;5071718;28;20102;-82
2022/01/05 05:41:19;;;;;;;47.83;31.77;;;;;;;0.12;100.00;92532.75;5071689;28;20410;-82
2022/01/05 05:43:48;;;;;;;39.75;28.30;;;;;;;0.20;100.00;92540.31;5071486;28;20049;-82
2022/01/05 05:46:15;;;;;;;45.58;28.85;;;;;;;0.09;100.00;92525.50;5071457;28;20408;-83
2022/01/05 05:48:43;;;;;;;38.72;24.98;;;;;;;0.22;100.00;92527.50;5071252;28;20576;-82
2022/01/05 05:51:10;;;;;;;45.30;27.85;;;;;;;0.29;100.00;92528.44;5071426;28;20049;-82
2022/01/05 05:53:37;;;;;;;44.88;25.85;;;;;;;0.48;100.00;92546.69;5071160;28;20059;-82
2022/01/05 05:56:04;;;;;;;50.08;30.08;;;;;;;0.39;100.00;92548.44;5070940;28;20045;-82
2022/01/05 05:58:31;;;;;;;50.33;30.10;;;;;;;0.30;100.00;92524.97;5069346;28;20049;-82
2022/01/05 06:00:58;;;;;;;45.25;25.27;;;;;;;0.44;100.00;92536.13;5070083;28;20059;-82
2022/01/05 06:03:24;;;;;;;51.40;27.20;;;;;;;0.46;100.00;92534.19;5070952;28;20110;-82
2022/01/05 06:05:52;;;;;;;56.85;30.38;;;;;;;0.29;100.00;92499.84;5071096;28;20102;-83
2022/01/05 06:08:19;;;;;;;51.53;29.55;;;;;;;0.64;100.00;92530.63;5071122;28;20056;-83
2022/01/05 06:10:46;;;;;;;63.90;34.08;;;;;;;0.72;100.00;92522.22;5071073;28;20048;-83
2022/01/05 06:13:13;;;;;;;72.13;39.90;;;;;;;0.80;100.00;92520.44;5071111;28;20049;-83
2022/01/05 06:15:40;;;;;;;63.13;38.88;;;;;;;0.90;100.00;92532.09;5070954;28;20044;-83
2022/01/05 06:18:06;;;;;;;52.30;30.20;;;;;;;0.46;100.00;92520.78;5071041;28;20557;-83
2022/01/05 06:20:33;;;;;;;63.75;39.53;;;;;;;0.05;100.00;92535.13;5071035;28;20044;-82
2022/01/05 06:23:01;;;;;;;66.00;38.97;;;;;;;-0.05;100.00;92522.69;5070998;28;20049;-83
2022/01/05 06:25:29;;;;;;;57.72;31.48;;;;;;;0.19;100.00;92523.56;5070759;28;20495;-83
2022/01/05 06:27:55;;;;;;;55.70;30.65;;;;;;;0.33;100.00;92522.09;5071174;28;20048;-82
2022/01/05 06:30:22;;;;;;;58.38;29.85;;;;;;;0.48;100.00;92512.09;5070744;28;20457;-83
2022/01/05 06:32:49;;;;;;;48.47;29.52;;;;;;;0.75;100.00;92532.78;5070759;28;20060;-83
2022/01/05 06:35:19;;;;;;;59.78;38.72;;;;;;;0.52;100.00;92533.53;5070657;28;20479;-83
2022/01/05 06:37:46;;;;;;;78.28;43.10;;;;;;;0.32;100.00;92537.44;5070860;28;20052;-82
2022/01/05 06:40:15;;;;;;;92.85;48.70;;;;;;;0.15;100.00;92534.16;5072578;28;20376;-83
2022/01/05 06:42:42;;;;;;;69.40;38.28;;;;;;;0.28;100.00;92536.19;5070693;28;20048;-83
2022/01/05 06:45:09;;;;;;;56.50;33.97;;;;;;;0.10;100.00;92544.75;5071677;28;20044;-83
2022/01/05 06:47:36;;;;;;;68.93;38.70;;;;;;;0.11;100.00;92542.06;5070566;28;20049;-83
2022/01/05 06:50:04;;;;;;;93.82;52.50;;;;;;;0.04;100.00;92545.41;5070472;28;20053;-83
2022/01/05 06:52:30;;;;;;;72.15;43.38;;;;;;;-0.17;100.00;92549.22;5070464;28;20052;-83
2022/01/05 06:54:57;;;;;;;69.60;43.42;;;;;;;-0.09;100.00;92554.25;5070648;28;20056;-83
2022/01/05 06:57:25;;;;;;;64.30;40.83;;;;;;;-0.08;100.00;92553.31;5070518;28;20048;-83
2022/01/05 06:59:52;;;;;;;63.60;38.40;;;;;;;-0.08;100.00;92538.19;5070474;28;20041;-83
2022/01/05 07:02:19;;;;;;;59.63;38.67;;;;;;;0.17;100.00;92557.50;5070672;28;20044;-83
2022/01/05 07:04:46;;;;;;;46.85;29.33;;;;;;;0.30;100.00;92545.16;5070375;28;20446;-83
2022/01/05 07:07:13;;;;;;;53.92;33.10;;;;;;;0.34;100.00;92553.19;5070563;28;20048;-83
2022/01/05 07:09:39;;;;;;;51.45;30.80;;;;;;;0.43;100.00;92557.28;5070740;28;20052;-83
2022/01/05 07:12:08;;;;;;;40.70;26.20;;;;;;;0.53;100.00;92560.41;5070298;28;20044;-83
2022/01/05 07:14:36;;;;;;;36.72;24.77;;;;;;;0.76;100.00;92562.19;5073789;28;20480;-83
2022/01/05 07:17:03;;;;;;;41.15;25.05;;;;;;;0.97;100.00;92570.91;5074193;28;20048;-83
2022/01/05 07:19:30;;;;;;;38.60;23.85;;;;;;;1.05;100.00;92557.44;5074273;28;20052;-83
2022/01/05 07:21:57;;;;;;;34.60;20.38;;;;;;;1.10;100.00;92560.25;5074180;28;20056;-83
2022/01/05 07:24:23;;;;;;;31.95;19.10;;;;;;;1.16;100.00;92559.59;5074146;28;20060;-83
2022/01/05 07:26:50;;;;;;;35.70;22.35;;;;;;;1.12;100.00;92565.16;5073990;28;20461;-83
2022/01/05 07:29:19;;;;;;;38.45;24.40;;;;;;;1.18;100.00;92575.41;5074049;28;20418;-83
2022/01/05 07:31:47;;;;;;;35.30;21.40;;;;;;;1.20;100.00;92572.69;5074090;28;20118;-83
2022/01/05 07:34:15;;;;;;;33.00;21.60;;;;;;;1.10;100.00;92577.19;5073965;28;20075;-83
2022/01/05 07:36:42;;;;;;;38.80;21.80;;;;;;;1.22;100.00;92575.84;5073349;28;20094;-83
2022/01/05 07:39:09;;;;;;;35.92;21.55;;;;;;;1.23;100.00;92559.72;5073171;28;20059;-84
2022/01/05 07:41:37;;;;;;;39.85;23.65;;;;;;;1.22;100.00;92550.56;5073095;28;20048;-83
2022/01/05 07:44:05;;;;;;;34.95;22.25;;;;;;;1.43;100.00;92574.44;5073051;28;20057;-83
2022/01/05 07:46:32;;;;;;;31.25;20.08;;;;;;;1.54;100.00;92568.19;5073163;28;20040;-83
2022/01/05 07:49:01;;;;;;;36.90;21.25;;;;;;;1.68;100.00;92572.53;5073516;28;20049;-83
2022/01/05 07:51:29;;;;;;;26.33;16.88;;;;;;;1.72;100.00;92556.00;5073649;28;20052;-84
2022/01/05 07:53:55;;;;;;;32.47;18.60;;;;;;;1.97;100.00;92572.72;5072768;28;20058;-83
2022/01/05 07:56:22;;;;;;;30.27;17.67;;;;;;;2.02;100.00;92569.66;5072988;28;20529;-83
2022/01/05 07:58:50;;;;;;;34.13;18.40;;;;;;;2.39;100.00;92575.66;5073397;28;20778;-84
2022/01/05 08:01:19;;;;;;;29.98;17.15;;;;;;;2.46;100.00;92573.97;5073439;28;20055;-84
2022/01/05 08:03:46;;;;;;;32.80;17.73;;;;;;;2.23;100.00;92528.47;5073195;28;20057;-84
2022/01/05 08:06:15;;;;;;;33.63;18.38;;;;;;;2.64;100.00;92567.78;5069392;28;20639;-84
2022/01/05 08:08:43;;;;;;;45.97;17.15;;;;;;;2.51;100.00;92526.06;5071970;28;20048;-83
2022/01/05 08:11:10;;;;;;;37.95;17.08;;;;;;;2.82;100.00;92569.16;5072660;28;20057;-83
2022/01/05 08:13:37;;;;;;;31.02;16.50;;;;;;;2.60;100.00;92534.34;5071417;28;20052;-83
2022/01/05 08:16:05;;;;;;;30.38;15.77;;;;;;;3.01;100.00;92586.31;5073261;28;20050;-83
2022/01/05 08:18:32;;;;;;;27.02;14.63;;;;;;;3.08;100.00;92581.34;5073175;28;20545;-83
2022/01/05 08:20:59;;;;;;;25.63;13.25;;;;;;;3.21;100.00;92576.38;5072954;28;20056;-84
2022/01/05 08:23:27;;;;;;;27.27;13.15;;;;;;;3.38;100.00;92575.38;5072831;28;20098;-84
2022/01/05 08:25:54;;;;;;;23.75;14.13;;;;;;;3.53;100.00;92563.41;5072996;28;20488;-83
2022/01/05 08:28:21;;;;;;;26.13;13.60;;;;;;;3.66;100.00;92567.78;5072964;28;20094;-84
2022/01/05 08:30:49;;;;;;;25.15;13.63;;;;;;;3.76;100.00;92564.16;5072881;28;20407;-84
2022/01/05 08:33:17;;;;;;;27.95;16.83;;;;;;;3.89;100.00;92566.78;5071909;28;20052;-84
2022/01/05 08:35:44;;;;;;;30.10;16.13;;;;;;;3.96;100.00;92546.53;5072664;28;20055;-82
2022/01/05 08:38:12;;;;;;;23.35;14.07;;;;;;;4.16;100.00;92556.06;5073148;28;20052;-82
2022/01/05 08:40:40;;;;;;;33.75;17.52;;;;;;;4.23;100.00;92554.31;5072687;28;20049;-81
2022/01/05 08:43:10;;;;;;;28.33;16.27;;;;;;;4.48;100.00;92552.09;5073023;28;20052;-82
2022/01/05 08:45:37;;;;;;;29.90;18.42;;;;;;;4.65;100.00;92550.06;5072640;28;20049;-82
2022/01/05 08:48:05;;;;;;;26.67;15.57;;;;;;;4.72;100.00;92541.66;5072894;28;20052;-82
2022/01/05 08:50:33;;;;;;;31.95;16.98;;;;;;;4.91;100.00;92542.69;5072697;28;20052;-82
2022/01/05 08:53:01;;;;;;;36.15;15.77;;;;;;;5.02;100.00;92554.06;5072770;28;20060;-82
2022/01/05 08:55:31;;;;;;;28.17;16.65;;;;;;;5.20;100.00;92545.91;5072325;28;20458;-82
2022/01/05 08:57:59;;;;;;;25.42;15.68;;;;;;;5.35;100.00;92538.09;5072379;28;20170;-82
2022/01/05 09:00:27;;;;;;;34.63;16.75;;;;;;;5.59;100.00;92548.69;5072171;28;20049;-82
2022/01/05 09:02:54;;;;;;;32.85;19.63;;;;;;;5.57;100.00;92528.53;5072208;28;20079;-82
2022/01/05 09:05:21;;;;;;;30.92;19.13;;;;;;;5.77;100.00;92557.50;5072159;28;20056;-84
2022/01/05 09:07:48;;;;;;;33.10;18.92;;;;;;;5.89;100.00;92558.50;5072169;28;20053;-84
2022/01/05 09:10:15;;;;;;;27.90;17.17;;;;;;;6.05;100.00;92549.69;5071994;28;20063;-84
2022/01/05 09:12:41;;;;;;;36.42;20.02;;;;;;;6.27;100.00;92541.81;5071966;28;20059;-84
2022/01/05 09:15:10;;;;;;;26.25;17.00;;;;;;;6.45;100.00;92536.09;5071817;28;20094;-84
2022/01/05 09:17:37;;;;;;;33.75;16.45;;;;;;;6.40;100.00;92523.16;5071993;28;20498;-84
2022/01/05 09:20:06;;;;;;;47.40;21.00;;;;;;;6.74;100.00;92541.69;5072063;28;20418;-82
2022/01/05 09:22:35;;;;;;;32.30;16.52;;;;;;;6.81;100.00;92537.31;5071899;28;20075;-82
2022/01/05 09:25:01;;;;;;;32.65;16.00;;;;;;;6.84;100.00;92527.72;5071833;28;20056;-82
2022/01/05 09:27:28;;;;;;;28.52;15.38;;;;;;;6.92;100.00;92519.81;5071453;28;20392;-86
2022/01/05 09:29:55;;;;;;;31.33;16.60;;;;;;;6.95;100.00;92521.97;5071277;28;20049;-84
2022/01/05 09:32:23;;;;;;;24.58;13.75;;;;;;;7.04;100.00;92515.63;5068897;28;20044;-84
2022/01/05 09:34:50;;;;;;;27.75;13.82;;;;;;;7.11;100.00;92507.94;5071451;28;20048;-85
2022/01/05 09:37:22;;;;;;;29.85;16.00;;;;;;;7.32;100.00;92511.91;5070878;28;20056;-84
2022/01/05 09:42:34;;;;;;;31.60;13.55;;;;;;;7.71;100.00;92504.19;5071475;28;20083;-84
2022/01/05 09:45:05;;;;;;;38.00;14.95;;;;;;;7.74;100.00;92488.41;5071123;28;20507;-85
2022/01/05 09:48:10;;;;;;;33.33;16.38;;;;;;;7.99;100.00;92487.63;5070563;28;20053;-84
2022/01/05 09:50:39;;;;;;;54.38;26.25;;;;;;;8.19;100.00;92476.41;5064733;28;20113;-84
2022/01/05 09:53:08;;;;;;;56.65;26.85;;;;;;;8.27;100.00;92455.66;5070910;28;20094;-84
2022/01/05 09:55:35;;;;;;;91.57;41.70;;;;;;;8.69;97.81;92482.38;5070793;28;20044;-84
2022/01/05 09:58:02;;;;;;;30.55;15.73;;;;;;;8.95;95.43;92483.81;5069992;28;20049;-84
2022/01/05 10:00:29;;;;;;;14.25;6.53;;;;;;;9.24;91.31;92478.13;5069710;28;20052;-84
2022/01/05 10:02:56;;;;;;;19.02;8.43;;;;;;;9.48;89.26;92468.69;5069084;28;20048;-81
2022/01/05 10:05:25;;;;;;;18.58;8.00;;;;;;;9.72;85.97;92475.66;5069460;28;20491;-84
2022/01/05 10:07:52;;;;;;;16.30;10.45;;;;;;;9.92;84.57;92464.25;5069977;28;20140;-83
2022/01/05 10:10:18;;;;;;;18.20;8.98;;;;;;;10.11;83.09;92458.00;5069735;28;20048;-81
2022/01/05 10:12:45;;;;;;;25.00;12.55;;;;;;;10.26;81.52;92465.25;5069460;28;20106;-84
2022/01/05 10:15:14;;;;;;;22.13;11.13;;;;;;;10.43;80.99;92455.06;5070717;28;20040;-83
2022/01/05 10:17:41;;;;;;;35.45;16.17;;;;;;;10.66;80.88;92450.88;5071082;28;20126;-84
2022/01/05 10:20:11;;;;;;;23.00;10.88;;;;;;;10.83;79.66;92455.28;5070805;28;20055;-84
2022/01/05 10:22:41;;;;;;;33.70;16.02;;;;;;;11.01;79.57;92446.59;5070840;28;20049;-84
2022/01/05 10:25:09;;;;;;;54.25;28.17;;;;;;;11.15;77.97;92439.38;5070547;28;20484;-84
2022/01/05 10:27:36;;;;;;;27.23;13.38;;;;;;;11.29;75.23;92428.81;5070435;28;20067;-84
2022/01/05 10:30:07;;;;;;;36.53;16.85;;;;;;;11.50;77.20;92442.75;5070508;28;20049;-84
2022/01/05 10:32:35;;;;;;;47.97;22.92;;;;;;;11.61;76.09;92426.47;5070930;28;20414;-84
2022/01/05 10:35:11;;;;;;;14.75;7.30;;;;;;;11.75;75.16;92415.84;5070897;28;20059;-84
2022/01/05 10:37:40;;;;;;;;;;;;;;;11.89;73.81;92422.22;5071046;28;20060;-81
2022/01/05 10:40:12;;;;;;;51.08;28.98;;;;;;;11.94;73.51;92416.34;5070520;28;19977;-82
2022/01/05 10:42:40;;;;;;;9.38;4.70;;;;;;;12.05;72.66;92408.81;5070475;28;20533;-82
2022/01/05 10:45:09;;;;;;;14.02;6.10;;;;;;;12.03;72.28;92403.84;5070831;28;20048;-82
2022/01/05 10:47:37;;;;;;;36.15;18.60;;;;;;;12.09;72.71;92397.78;5071084;28;20056;-82
2022/01/05 10:50:05;;;;;;;13.18;6.88;;;;;;;12.26;72.01;92402.88;5074607;28;20056;-83
2022/01/05 10:52:34;;;;;;;9.88;4.95;;;;;;;12.38;70.49;92392.47;5074728;28;20045;-82
2022/01/05 10:55:12;;;;;;;16.27;7.38;;;;;;;12.38;71.37;92389.91;5074519;28;20052;-83
2022/01/05 10:57:39;;;;;;;12.13;5.50;;;;;;;12.47;70.79;92386.88;5074555;28;20045;-83
2022/01/05 11:00:07;;;;;;;27.00;12.00;;;;;;;12.36;68.50;92376.47;5074914;28;20048;-83
2022/01/05 11:02:36;;;;;;;19.60;10.52;;;;;;;12.54;69.60;92377.16;5074704;28;20045;-83
2022/01/05 11:05:15;;;;;;;9.57;4.50;;;;;;;12.61;68.32;92387.28;5074368;28;20487;-82
2022/01/05 11:07:46;;;;;;;15.75;7.93;;;;;;;12.59;69.19;92373.88;5073784;28;20518;-83
2022/01/05 11:10:17;;;;;;;10.35;4.55;;;;;;;12.63;67.44;92370.56;5074275;28;20051;-82
2022/01/05 11:12:46;;;;;;;9.23;4.97;;;;;;;12.68;67.77;92365.47;5074357;28;20056;-82
2022/01/05 11:15:24;;;;;;;14.10;7.15;;;;;;;12.81;67.66;92373.81;5074364;28;20056;-82
2022/01/05 11:18:15;;;;;;;7.05;3.67;;;;;;;12.87;66.36;92359.94;5073901;28;20139;-82
2022/01/05 11:20:51;;;;;;;9.25;4.57;;;;;;;12.85;66.75;92348.34;5054185;28;20052;-82
2022/01/05 11:23:20;;;;;;;8.02;4.07;;;;;;;13.00;67.16;92365.75;5054080;28;20040;-82
2022/01/05 11:25:50;;;;;;;6.35;3.22;;;;;;;13.02;65.75;92355.97;5054902;28;20388;-83